Time;durP1;ratioP1;P1;durP2;ratioP2;P2;SDS_P1;SDS_P2;PMS_P1;PMS_P2;Temp;Humidity;BMP_temperature;BMP_pressure;BME280_temperature;BME280_humidity;BME280_pressure;Samples;Min_cycle;Max_cycle;Signal;HPM_P1;HPM_P2
2022/07/29 00:00:28;;;;;;;8.38;2.80;;;;;;;;;;4931760;29;20028;-73
2022/07/29 00:02:54;;;;;;;8.20;2.80;;;;;;;;;;4931859;29;20087;-73
2022/07/29 00:05:20;;;;;;;8.73;2.92;;;;;;;;;;4931651;29;20036;-73
2022/07/29 00:07:46;;;;;;;8.55;2.85;;;;;;;;;;4931724;29;20051;-73
2022/07/29 00:10:11;;;;;;;6.82;2.80;;;;;;;;;;4932074;29;20423;-73
2022/07/29 00:12:37;;;;;;;7.45;2.80;;;;;;;;;;4933502;29;20099;-73
2022/07/29 00:15:03;;;;;;;6.55;2.83;;;;;;;;;;4933305;29;20410;-73
2022/07/29 00:17:29;;;;;;;4.65;2.03;;;;;;;;;;4933387;29;20040;-73
2022/07/29 00:19:54;;;;;;;7.72;3.10;;;;;;;;;;4932265;29;20028;-73
2022/07/29 00:22:20;;;;;;;5.97;2.72;;;;;;;;;;4935261;29;20039;-73
2022/07/29 00:24:48;;;;;;;6.70;2.67;;;;;;;;;;4952362;29;20027;-73
2022/07/29 00:27:14;;;;;;;12.25;2.90;;;;;;;;;;4953268;29;20023;-73
2022/07/29 00:29:39;;;;;;;9.68;2.50;;;;;;;;;;4952704;28;20034;-73
2022/07/29 00:32:05;;;;;;;6.35;2.75;;;;;;;;;;4950974;29;20068;-73
2022/07/29 00:37:14;;;;;;;11.57;3.20;;;;;;;;;;4952055;29;20058;-74
2022/07/29 00:39:40;;;;;;;6.50;2.42;;;;;;;;;;4950465;29;20483;-73
2022/07/29 00:42:06;;;;;;;8.40;2.97;;;;;;;;;;4950812;29;20424;-74
2022/07/29 00:44:39;;;;;;;6.38;2.50;;;;;;;;;;4950537;29;20035;-73
2022/07/29 00:47:05;;;;;;;6.97;2.63;;;;;;;;;;4951756;28;20063;-73
2022/07/29 00:49:32;;;;;;;4.22;2.65;;;;;;;;;;4951571;28;20423;-74
2022/07/29 00:51:57;;;;;;;9.18;2.78;;;;;;;;;;4951776;28;20027;-74
2022/07/29 00:54:23;;;;;;;7.43;2.75;;;;;;;;;;4951375;28;20486;-75
2022/07/29 00:56:49;;;;;;;5.13;2.67;;;;;;;;;;4951684;28;20054;-74
2022/07/29 00:59:14;;;;;;;5.13;2.28;;;;;;;;;;4951352;28;20031;-74
2022/07/29 01:01:40;;;;;;;7.95;2.50;;;;;;;;;;4951770;28;20042;-74
2022/07/29 01:04:06;;;;;;;7.78;3.03;;;;;;;;;;4951517;28;20028;-74
2022/07/29 01:06:33;;;;;;;9.88;2.78;;;;;;;;;;4949964;29;20422;-74
2022/07/29 01:08:59;;;;;;;8.85;3.20;;;;;;;;;;4949934;29;20063;-74
2022/07/29 01:11:25;;;;;;;5.07;2.90;;;;;;;;;;4949818;29;20027;-72
2022/07/29 01:13:52;;;;;;;9.50;3.10;;;;;;;;;;4950524;29;20065;-73
2022/07/29 01:16:50;;;;;;;5.03;1.90;;;;;;;;;;4950056;29;20028;-74
2022/07/29 01:19:53;;;;;;;5.55;2.95;;;;;;;;;;4949722;29;20065;-74
2022/07/29 01:22:34;;;;;;;8.80;4.13;;;;;;;;;;4949851;28;20043;-73
2022/07/29 01:25:32;;;;;;;7.03;2.83;;;;;;;;;;4932041;29;20481;-72
2022/07/29 01:28:24;;;;;;;6.63;2.45;;;;;;;;;;4930993;29;20083;-72
2022/07/29 01:30:52;;;;;;;4.78;2.65;;;;;;;;;;4946471;29;20055;-73
2022/07/29 01:36:11;;;;;;;8.68;2.70;;;;;;;;;;4932197;29;20083;-73
2022/07/29 01:38:40;;;;;;;13.30;3.40;;;;;;;;;;4946860;29;20043;-73
2022/07/29 01:41:12;;;;;;;8.07;2.67;;;;;;;;;;4932168;29;20465;-73
2022/07/29 01:44:12;;;;;;;6.05;3.05;;;;;;;;;;4946728;29;20036;-73
2022/07/29 01:46:41;;;;;;;10.07;2.33;;;;;;;;;;4915572;29;20138;-73
2022/07/29 01:49:17;;;;;;;6.78;2.63;;;;;;;;;;4930752;29;20032;-73
2022/07/29 01:51:50;;;;;;;11.38;2.33;;;;;;;;;;4932006;29;20511;-74
2022/07/29 01:54:26;;;;;;;14.00;2.90;;;;;;;;;;4930643;29;20319;-74
2022/07/29 01:56:55;;;;;;;8.43;3.65;;;;;;;;;;4930688;29;20032;-73
2022/07/29 01:59:21;;;;;;;12.65;3.08;;;;;;;;;;4935056;29;20115;-73
2022/07/29 02:01:49;;;;;;;5.78;3.70;;;;;;;;;;4934055;29;20023;-74
2022/07/29 02:04:16;;;;;;;7.82;2.90;;;;;;;;;;4934037;29;20452;-74
2022/07/29 02:06:44;;;;;;;4.25;2.88;;;;;;;;;;4935208;29;20030;-73
2022/07/29 02:09:11;;;;;;;8.10;3.05;;;;;;;;;;4933940;29;20055;-73
2022/07/29 02:11:38;;;;;;;7.00;2.45;;;;;;;;;;4935145;29;20039;-73
2022/07/29 02:14:04;;;;;;;9.07;3.00;;;;;;;;;;4950381;29;20059;-72
2022/07/29 02:16:32;;;;;;;6.07;2.67;;;;;;;;;;4935021;29;20039;-72
2022/07/29 02:19:00;;;;;;;7.05;2.70;;;;;;;;;;4934088;29;20027;-74
2022/07/29 02:21:29;;;;;;;6.18;2.70;;;;;;;;;;4934847;29;20447;-74
2022/07/29 02:23:59;;;;;;;5.57;2.45;;;;;;;;;;4933781;29;20031;-73
2022/07/29 02:26:26;;;;;;;7.40;3.20;;;;;;;;;;4933496;29;20031;-74
2022/07/29 02:28:55;;;;;;;5.57;2.85;;;;;;;;;;4933724;29;20454;-73
2022/07/29 02:31:25;;;;;;;8.32;2.80;;;;;;;;;;4934779;29;20436;-75
2022/07/29 02:33:52;;;;;;;7.35;3.38;;;;;;;;;;4933843;29;20063;-76
2022/07/29 02:36:21;;;;;;;10.50;3.13;;;;;;;;;;4933494;29;20031;-75
2022/07/29 02:38:50;;;;;;;7.00;2.97;;;;;;;;;;4934989;29;20482;-75
2022/07/29 02:41:35;;;;;;;8.88;2.83;;;;;;;;;;4933379;29;20031;-75
2022/07/29 02:44:11;;;;;;;3.42;2.80;;;;;;;;;;4935147;29;20031;-75
2022/07/29 02:46:42;;;;;;;6.07;2.35;;;;;;;;;;4933172;29;20027;-75
2022/07/29 02:49:48;;;;;;;6.07;3.05;;;;;;;;;;4934966;29;20035;-75
2022/07/29 02:52:37;;;;;;;9.18;2.58;;;;;;;;;;4931564;29;20063;-75
2022/07/29 02:55:18;;;;;;;5.80;2.58;;;;;;;;;;4934839;29;20035;-75
2022/07/29 02:57:59;;;;;;;10.93;3.77;;;;;;;;;;4933327;29;20042;-74
2022/07/29 03:00:28;;;;;;;8.23;3.13;;;;;;;;;;4948717;29;20286;-74
2022/07/29 03:02:59;;;;;;;5.88;2.67;;;;;;;;;;4933193;29;20035;-75
2022/07/29 03:05:26;;;;;;;7.40;2.90;;;;;;;;;;4934363;29;20027;-75
2022/07/29 03:07:55;;;;;;;5.90;3.33;;;;;;;;;;4932906;29;20052;-76
2022/07/29 03:10:25;;;;;;;11.10;2.58;;;;;;;;;;4947847;28;20496;-74
2022/07/29 03:12:51;;;;;;;8.38;3.00;;;;;;;;;;4932928;29;20518;-75
2022/07/29 03:15:18;;;;;;;9.23;2.85;;;;;;;;;;4934233;29;20048;-75
2022/07/29 03:17:44;;;;;;;8.35;2.60;;;;;;;;;;4933820;29;20027;-76
2022/07/29 03:20:11;;;;;;;13.10;3.35;;;;;;;;;;4934402;29;20043;-76
2022/07/29 03:22:46;;;;;;;6.65;2.67;;;;;;;;;;4934289;29;20027;-74
2022/07/29 03:25:13;;;;;;;6.25;2.85;;;;;;;;;;4952089;29;20027;-74
2022/07/29 03:27:40;;;;;;;9.88;3.00;;;;;;;;;;4953175;28;20119;-73
2022/07/29 03:30:07;;;;;;;10.27;2.70;;;;;;;;;;4951717;29;20042;-74
2022/07/29 03:32:35;;;;;;;7.70;2.65;;;;;;;;;;4951735;29;20051;-74
2022/07/29 03:35:00;;;;;;;6.90;2.65;;;;;;;;;;4935982;29;20058;-73
2022/07/29 03:37:26;;;;;;;6.05;3.38;;;;;;;;;;4951330;29;20062;-74
2022/07/29 03:39:55;;;;;;;5.28;2.88;;;;;;;;;;4952885;28;20480;-74
2022/07/29 03:42:27;;;;;;;8.90;2.90;;;;;;;;;;4952817;28;20476;-73
2022/07/29 03:44:55;;;;;;;6.15;2.78;;;;;;;;;;4952710;29;20403;-73
2022/07/29 03:47:25;;;;;;;8.82;2.92;;;;;;;;;;4951196;29;20035;-73
2022/07/29 03:49:53;;;;;;;8.68;3.00;;;;;;;;;;4953098;28;20035;-75
2022/07/29 03:52:20;;;;;;;17.10;3.58;;;;;;;;;;4951239;29;20031;-72
2022/07/29 03:54:46;;;;;;;11.02;4.00;;;;;;;;;;4950865;29;20031;-72
2022/07/29 03:57:12;;;;;;;9.98;3.75;;;;;;;;;;4967186;28;20054;-73
2022/07/29 03:59:39;;;;;;;20.73;3.50;;;;;;;;;;4950838;29;20027;-72
2022/07/29 04:02:10;;;;;;;11.90;3.83;;;;;;;;;;4952197;29;20361;-73
2022/07/29 04:04:36;;;;;;;10.48;3.47;;;;;;;;;;4952680;28;20046;-73
2022/07/29 04:07:03;;;;;;;9.80;3.53;;;;;;;;;;4953250;28;20023;-74
2022/07/29 04:09:28;;;;;;;8.20;3.42;;;;;;;;;;4966812;28;20047;-74
2022/07/29 04:11:54;;;;;;;7.93;2.85;;;;;;;;;;4952531;28;20030;-74
2022/07/29 04:14:20;;;;;;;6.03;3.20;;;;;;;;;;4950940;29;20615;-74
2022/07/29 04:16:46;;;;;;;5.32;2.47;;;;;;;;;;4950651;29;20503;-73
2022/07/29 04:19:11;;;;;;;10.90;2.75;;;;;;;;;;4952418;29;20022;-73
2022/07/29 04:21:41;;;;;;;12.32;3.42;;;;;;;;;;4951739;28;20384;-73
2022/07/29 04:24:07;;;;;;;6.32;3.50;;;;;;;;;;4938477;29;20039;-73
2022/07/29 04:26:34;;;;;;;8.90;3.25;;;;;;;;;;4932161;29;20035;-74
2022/07/29 04:29:00;;;;;;;7.57;2.70;;;;;;;;;;4931652;29;20042;-73
2022/07/29 04:31:25;;;;;;;9.82;3.88;;;;;;;;;;4932941;29;20481;-72
2022/07/29 04:33:51;;;;;;;5.32;3.03;;;;;;;;;;4931543;29;20229;-73
2022/07/29 04:36:16;;;;;;;9.75;3.30;;;;;;;;;;4932654;29;20034;-73
2022/07/29 04:38:42;;;;;;;9.30;2.47;;;;;;;;;;4932694;29;20035;-73
2022/07/29 04:41:08;;;;;;;8.10;3.13;;;;;;;;;;4931163;29;20050;-73
2022/07/29 04:43:34;;;;;;;8.45;4.28;;;;;;;;;;4932387;29;20110;-73
2022/07/29 04:46:00;;;;;;;9.43;3.00;;;;;;;;;;4932518;29;20061;-75
2022/07/29 04:48:26;;;;;;;6.95;3.17;;;;;;;;;;4931361;29;20437;-73
2022/07/29 04:50:52;;;;;;;7.20;3.40;;;;;;;;;;4932431;29;20016;-73
2022/07/29 04:53:17;;;;;;;8.75;3.13;;;;;;;;;;4932318;29;20032;-72
2022/07/29 04:55:44;;;;;;;5.43;2.72;;;;;;;;;;4932163;29;20033;-74
2022/07/29 04:58:10;;;;;;;7.63;2.92;;;;;;;;;;4931038;29;20027;-73
2022/07/29 05:00:36;;;;;;;8.68;2.90;;;;;;;;;;4931054;29;20036;-74
2022/07/29 05:03:01;;;;;;;6.97;2.72;;;;;;;;;;4930903;29;20032;-73
2022/07/29 05:05:27;;;;;;;10.63;3.20;;;;;;;;;;4930760;29;20059;-73
2022/07/29 05:07:53;;;;;;;7.50;3.08;;;;;;;;;;4931770;29;20047;-74
2022/07/29 05:10:18;;;;;;;13.27;3.80;;;;;;;;;;4931100;29;20032;-73
2022/07/29 05:12:43;;;;;;;11.55;3.28;;;;;;;;;;4932133;29;20032;-75
2022/07/29 05:15:10;;;;;;;8.48;3.45;;;;;;;;;;4932374;29;20031;-74
2022/07/29 05:17:35;;;;;;;9.15;3.13;;;;;;;;;;4930541;29;20050;-73
2022/07/29 05:20:01;;;;;;;8.27;3.20;;;;;;;;;;4928797;29;20020;-73
2022/07/29 05:22:26;;;;;;;11.57;3.30;;;;;;;;;;4941640;29;20039;-72
2022/07/29 05:24:52;;;;;;;5.45;2.72;;;;;;;;;;4954669;29;20085;-76
2022/07/29 05:27:17;;;;;;;4.30;2.85;;;;;;;;;;4938751;28;20058;-77
2022/07/29 05:29:43;;;;;;;9.23;3.88;;;;;;;;;;4932735;29;20043;-76
2022/07/29 05:32:08;;;;;;;8.48;3.10;;;;;;;;;;4931855;29;20163;-75
2022/07/29 05:34:34;;;;;;;16.40;3.30;;;;;;;;;;4935947;29;20039;-76
2022/07/29 05:36:59;;;;;;;7.80;3.22;;;;;;;;;;4934747;29;20035;-75
2022/07/29 05:39:25;;;;;;;11.95;3.35;;;;;;;;;;4935106;29;20065;-75
2022/07/29 05:41:50;;;;;;;6.22;3.38;;;;;;;;;;4934879;29;20340;-76
2022/07/29 05:44:16;;;;;;;10.07;3.70;;;;;;;;;;4935169;29;20152;-76
2022/07/29 05:46:41;;;;;;;10.48;3.90;;;;;;;;;;4935384;29;20106;-76
2022/07/29 05:49:07;;;;;;;7.15;2.95;;;;;;;;;;4935880;29;20032;-76
2022/07/29 05:51:34;;;;;;;15.73;3.88;;;;;;;;;;4936148;29;20067;-78
2022/07/29 05:54:00;;;;;;;8.02;3.03;;;;;;;;;;4934160;29;20067;-75
2022/07/29 05:56:26;;;;;;;5.78;3.10;;;;;;;;;;4934656;29;20031;-74
2022/07/29 05:58:52;;;;;;;10.90;3.38;;;;;;;;;;4942410;29;20062;-76
2022/07/29 06:01:17;;;;;;;12.45;3.35;;;;;;;;;;4954943;28;20099;-75
2022/07/29 06:03:43;;;;;;;9.73;3.35;;;;;;;;;;4939796;29;20484;-77
2022/07/29 06:06:08;;;;;;;11.88;3.53;;;;;;;;;;4962350;28;20019;-74
2022/07/29 06:08:36;;;;;;;9.43;3.90;;;;;;;;;;4935318;29;20469;-74
2022/07/29 06:11:02;;;;;;;9.88;3.78;;;;;;;;;;4935688;29;20020;-75
2022/07/29 06:13:28;;;;;;;18.80;8.50;;;;;;;;;;4935850;29;20023;-75
2022/07/29 06:15:53;;;;;;;8.43;3.58;;;;;;;;;;4933417;29;20544;-74
2022/07/29 06:18:23;;;;;;;9.93;3.70;;;;;;;;;;4938832;29;20055;-75
2022/07/29 06:20:53;;;;;;;9.38;3.42;;;;;;;;;;4933259;29;20028;-76
2022/07/29 06:23:20;;;;;;;18.80;4.43;;;;;;;;;;4939180;29;20026;-76
2022/07/29 06:25:48;;;;;;;15.45;4.38;;;;;;;;;;4951846;29;20081;-76
2022/07/29 06:28:14;;;;;;;10.05;3.45;;;;;;;;;;4951902;28;20031;-76
2022/07/29 06:30:41;;;;;;;4.85;3.22;;;;;;;;;;4952480;29;20540;-78
2022/07/29 06:33:08;;;;;;;8.77;3.67;;;;;;;;;;4936320;29;20398;-76
2022/07/29 06:35:38;;;;;;;10.55;3.33;;;;;;;;;;4951897;29;20139;-75
2022/07/29 06:38:04;;;;;;;7.45;3.78;;;;;;;;;;4951970;29;20027;-75
2022/07/29 06:43:14;;;;;;;9.32;3.22;;;;;;;;;;4953200;28;20039;-75
2022/07/29 06:45:40;;;;;;;11.65;3.95;;;;;;;;;;4935548;29;20040;-76
2022/07/29 06:48:07;;;;;;;7.18;3.47;;;;;;;;;;4952231;29;20039;-76
2022/07/29 06:50:33;;;;;;;9.68;3.78;;;;;;;;;;4954350;28;20023;-75
2022/07/29 06:52:58;;;;;;;14.88;4.13;;;;;;;;;;4969746;28;20182;-74
2022/07/29 06:55:24;;;;;;;7.80;4.45;;;;;;;;;;4951534;29;20054;-73
2022/07/29 06:57:50;;;;;;;9.18;3.75;;;;;;;;;;4951719;29;20035;-74
2022/07/29 07:00:17;;;;;;;27.35;4.75;;;;;;;;;;4951346;29;20031;-73
2022/07/29 07:02:42;;;;;;;13.05;4.55;;;;;;;;;;4953021;28;20032;-74
2022/07/29 07:05:08;;;;;;;8.65;3.55;;;;;;;;;;4945841;29;20494;-73
2022/07/29 07:07:33;;;;;;;12.02;4.07;;;;;;;;;;4936791;29;20039;-73
2022/07/29 07:09:59;;;;;;;10.90;4.28;;;;;;;;;;4948731;28;20295;-75
2022/07/29 07:12:25;;;;;;;10.50;3.95;;;;;;;;;;4936781;29;20042;-74
2022/07/29 07:14:50;;;;;;;18.35;4.55;;;;;;;;;;4947390;29;20561;-76
2022/07/29 07:17:16;;;;;;;10.95;3.88;;;;;;;;;;4966445;28;20039;-74
2022/07/29 07:19:42;;;;;;;5.40;3.72;;;;;;;;;;4932159;29;20404;-74
2022/07/29 07:22:08;;;;;;;9.02;3.92;;;;;;;;;;4936147;29;20031;-75
2022/07/29 07:24:33;;;;;;;7.32;4.15;;;;;;;;;;4939157;29;20037;-74
2022/07/29 07:26:59;;;;;;;10.13;3.92;;;;;;;;;;4940172;29;20057;-75
2022/07/29 07:29:25;;;;;;;13.48;3.55;;;;;;;;;;4930958;29;20039;-75
2022/07/29 07:31:51;;;;;;;20.13;4.03;;;;;;;;;;4930645;29;20044;-73
2022/07/29 07:34:16;;;;;;;13.40;3.72;;;;;;;;;;4939538;28;20440;-75
2022/07/29 07:36:43;;;;;;;9.98;3.80;;;;;;;;;;4964732;28;20054;-74
2022/07/29 07:39:09;;;;;;;10.68;3.72;;;;;;;;;;4958835;28;20023;-75
2022/07/29 07:41:34;;;;;;;18.27;4.53;;;;;;;;;;4947622;29;20506;-75
2022/07/29 07:44:00;;;;;;;8.98;4.70;;;;;;;;;;4944062;29;20023;-75
2022/07/29 07:46:26;;;;;;;14.25;4.05;;;;;;;;;;4941548;29;20480;-76
2022/07/29 07:48:52;;;;;;;14.10;3.63;;;;;;;;;;4929272;29;20036;-75
2022/07/29 07:51:18;;;;;;;8.60;3.33;;;;;;;;;;4940987;29;20019;-76
2022/07/29 07:53:44;;;;;;;10.23;3.80;;;;;;;;;;4950437;28;20461;-75
2022/07/29 07:56:11;;;;;;;12.23;10.40;;;;;;;;;;4940574;28;20050;-75
2022/07/29 07:58:36;;;;;;;11.93;4.20;;;;;;;;;;4940333;29;20027;-76
2022/07/29 08:01:02;;;;;;;13.52;4.90;;;;;;;;;;4944782;28;20031;-76
2022/07/29 08:03:27;;;;;;;14.77;4.60;;;;;;;;;;4941058;28;21250;-75
2022/07/29 08:05:54;;;;;;;15.95;4.10;;;;;;;;;;4961065;28;20424;-75
2022/07/29 08:08:21;;;;;;;10.63;3.45;;;;;;;;;;4943958;29;20055;-74
2022/07/29 08:10:52;;;;;;;12.48;3.65;;;;;;;;;;4947276;28;20031;-74
2022/07/29 08:13:20;;;;;;;20.55;4.43;;;;;;;;;;4946014;28;20451;-75
2022/07/29 08:15:47;;;;;;;9.88;3.58;;;;;;;;;;4932974;28;20031;-75
2022/07/29 08:18:13;;;;;;;16.02;4.50;;;;;;;;;;4946028;29;20035;-74
2022/07/29 08:20:39;;;;;;;9.48;4.03;;;;;;;;;;4932932;29;20083;-76
2022/07/29 08:23:08;;;;;;;10.35;3.70;;;;;;;;;;4962336;28;20024;-75
2022/07/29 08:25:35;;;;;;;11.65;3.28;;;;;;;;;;4934144;29;20035;-75
2022/07/29 08:28:01;;;;;;;9.55;3.50;;;;;;;;;;4940068;29;20037;-74
2022/07/29 08:30:26;;;;;;;10.98;3.90;;;;;;;;;;4945327;29;20027;-74
2022/07/29 08:32:52;;;;;;;13.00;4.13;;;;;;;;;;4937168;29;20043;-75
2022/07/29 08:35:19;;;;;;;14.73;4.50;;;;;;;;;;4945261;29;20042;-69
2022/07/29 08:37:45;;;;;;;13.57;4.25;;;;;;;;;;4930953;29;20119;-72
2022/07/29 08:40:11;;;;;;;15.00;4.10;;;;;;;;;;4924896;29;20138;-75
2022/07/29 08:42:37;;;;;;;8.20;3.20;;;;;;;;;;4938524;28;20147;-74
2022/07/29 08:45:05;;;;;;;10.95;3.60;;;;;;;;;;4944762;29;20466;-75
2022/07/29 08:47:30;;;;;;;11.88;3.90;;;;;;;;;;4942434;29;20023;-73
2022/07/29 08:49:56;;;;;;;19.77;4.22;;;;;;;;;;4945254;29;20118;-74
2022/07/29 08:52:24;;;;;;;7.85;4.20;;;;;;;;;;4944792;29;20035;-75
2022/07/29 08:54:53;;;;;;;10.60;4.70;;;;;;;;;;4933447;29;20557;-74
2022/07/29 08:57:20;;;;;;;10.77;4.00;;;;;;;;;;4942918;29;20037;-75
2022/07/29 08:59:46;;;;;;;20.15;3.92;;;;;;;;;;4939182;29;20484;-76
2022/07/29 09:02:23;;;;;;;11.48;4.32;;;;;;;;;;4941513;29;20035;-75
2022/07/29 09:04:49;;;;;;;10.23;4.22;;;;;;;;;;4942534;29;20031;-75
2022/07/29 09:07:16;;;;;;;91.32;13.25;;;;;;;;;;4943456;29;20037;-75
2022/07/29 09:09:44;;;;;;;16.55;4.68;;;;;;;;;;4947647;29;20110;-74
2022/07/29 09:12:11;;;;;;;19.95;5.05;;;;;;;;;;4942072;29;20079;-74
2022/07/29 09:14:41;;;;;;;14.32;4.70;;;;;;;;;;4938390;28;20023;-73
2022/07/29 09:17:07;;;;;;;8.77;3.33;;;;;;;;;;4934233;29;20027;-74
2022/07/29 09:19:34;;;;;;;13.05;5.50;;;;;;;;;;4943195;29;20035;-74
2022/07/29 09:22:04;;;;;;;11.98;3.60;;;;;;;;;;4960844;28;20031;-75
2022/07/29 09:24:46;;;;;;;9.52;4.28;;;;;;;;;;4930717;29;20373;-75
2022/07/29 09:27:20;;;;;;;9.32;3.78;;;;;;;;;;4945915;28;20036;-75
2022/07/29 09:29:46;;;;;;;14.05;5.10;;;;;;;;;;4935880;29;20395;-74
2022/07/29 09:32:12;;;;;;;10.25;4.78;;;;;;;;;;4941673;29;20361;-75
2022/07/29 09:34:38;;;;;;;9.90;4.22;;;;;;;;;;4946777;28;20026;-74
2022/07/29 09:37:05;;;;;;;13.75;4.60;;;;;;;;;;4944018;28;20035;-75
2022/07/29 09:39:45;;;;;;;10.77;4.22;;;;;;;;;;4945337;29;20412;-74
2022/07/29 09:42:11;;;;;;;9.25;4.07;;;;;;;;;;4955887;28;20736;-73
2022/07/29 09:44:41;;;;;;;9.15;3.65;;;;;;;;;;4939705;29;20028;-73
2022/07/29 09:47:06;;;;;;;11.52;4.38;;;;;;;;;;4942197;29;20392;-74
2022/07/29 09:49:34;;;;;;;9.20;3.80;;;;;;;;;;4945663;29;20040;-75
2022/07/29 09:52:09;;;;;;;13.27;3.78;;;;;;;;;;4948886;28;20031;-77
2022/07/29 09:54:38;;;;;;;9.32;4.22;;;;;;;;;;4945413;29;20034;-74
2022/07/29 09:57:24;;;;;;;5.07;3.72;;;;;;;;;;4931750;29;20027;-75
2022/07/29 09:59:57;;;;;;;11.75;4.43;;;;;;;;;;4946547;28;20114;-77
2022/07/29 10:02:27;;;;;;;8.25;4.00;;;;;;;;;;4943827;29;20476;-77
2022/07/29 10:04:52;;;;;;;10.55;4.95;;;;;;;;;;4946813;29;20050;-75
2022/07/29 10:07:19;;;;;;;11.80;4.70;;;;;;;;;;4946353;29;20035;-77
2022/07/29 10:09:57;;;;;;;9.82;4.18;;;;;;;;;;4937366;29;20087;-75
2022/07/29 10:12:23;;;;;;;13.90;4.22;;;;;;;;;;4961082;28;20034;-76
2022/07/29 10:14:50;;;;;;;9.63;4.22;;;;;;;;;;4936697;29;20031;-76
2022/07/29 10:17:19;;;;;;;11.25;4.53;;;;;;;;;;4943661;29;20031;-75
2022/07/29 10:19:44;;;;;;;8.93;4.50;;;;;;;;;;4954270;28;20059;-76
2022/07/29 10:22:11;;;;;;;7.18;4.47;;;;;;;;;;4963816;28;20031;-76
2022/07/29 10:24:38;;;;;;;8.20;3.70;;;;;;;;;;4940613;29;20039;-76
2022/07/29 10:27:06;;;;;;;9.93;4.35;;;;;;;;;;4958888;29;20015;-76
2022/07/29 10:29:32;;;;;;;14.23;4.70;;;;;;;;;;4955384;29;20027;-75
2022/07/29 10:32:10;;;;;;;14.60;4.45;;;;;;;;;;4941917;29;20043;-76
2022/07/29 10:35:03;;;;;;;8.10;3.67;;;;;;;;;;4943819;28;20491;-75
2022/07/29 10:38:02;;;;;;;10.73;3.90;;;;;;;;;;4943404;29;20492;-75
2022/07/29 10:43:52;;;;;;;11.15;5.00;;;;;;;;;;4949166;29;20054;-76
2022/07/29 10:46:21;;;;;;;9.10;4.93;;;;;;;;;;4941092;29;20536;-75
2022/07/29 10:49:16;;;;;;;11.95;4.20;;;;;;;;;;4935438;29;20342;-76
2022/07/29 10:52:09;;;;;;;9.43;4.82;;;;;;;;;;4944302;29;20023;-75
2022/07/29 10:57:19;;;;;;;11.05;4.32;;;;;;;;;;4945958;29;20034;-75
2022/07/29 10:59:50;;;;;;;6.10;4.28;;;;;;;;;;4959242;28;20054;-76
2022/07/29 11:05:08;;;;;;;12.13;5.00;;;;;;;;;;4945103;29;20032;-75
2022/07/29 11:07:34;;;;;;;7.18;4.40;;;;;;;;;;4942667;29;20484;-75
2022/07/29 11:10:15;;;;;;;7.93;3.67;;;;;;;;;;4949203;29;20062;-75
2022/07/29 11:12:40;;;;;;;7.00;4.72;;;;;;;;;;4940549;28;20106;-75
2022/07/29 11:15:18;;;;;;;10.80;4.43;;;;;;;;;;4945007;29;20130;-76
2022/07/29 11:18:00;;;;;;;10.05;4.70;;;;;;;;;;4946676;28;20131;-76
2022/07/29 11:20:47;;;;;;;7.93;4.07;;;;;;;;;;4938398;29;20059;-77
2022/07/29 11:23:27;;;;;;;18.70;9.25;;;;;;;;;;4963243;28;20498;-76
2022/07/29 11:26:15;;;;;;;9.15;8.10;;;;;;;;;;4964893;28;20110;-77
2022/07/29 11:28:50;;;;;;;11.65;4.38;;;;;;;;;;4961360;28;20039;-76
2022/07/29 11:31:43;;;;;;;9.70;4.38;;;;;;;;;;4965422;28;20019;-76
2022/07/29 11:34:23;;;;;;;12.13;5.10;;;;;;;;;;4948814;29;20503;-76
2022/07/29 11:37:11;;;;;;;10.57;5.10;;;;;;;;;;4947793;29;20058;-77
2022/07/29 11:39:38;;;;;;;13.88;5.03;;;;;;;;;;4945107;29;20054;-76
2022/07/29 11:42:22;;;;;;;12.75;4.65;;;;;;;;;;4945357;29;20090;-75
2022/07/29 11:45:16;;;;;;;7.88;3.97;;;;;;;;;;4953137;28;20118;-77
2022/07/29 11:47:48;;;;;;;15.90;3.88;;;;;;;;;;4933660;29;20126;-76
2022/07/29 11:50:36;;;;;;;10.75;4.70;;;;;;;;;;4933832;29;20031;-77
2022/07/29 11:53:10;;;;;;;12.75;4.88;;;;;;;;;;4944549;29;20298;-76
2022/07/29 11:55:38;;;;;;;9.38;3.92;;;;;;;;;;4933747;29;20042;-76
2022/07/29 11:58:03;;;;;;;8.32;4.43;;;;;;;;;;4948835;29;20034;-75
2022/07/29 12:00:44;;;;;;;33.85;9.00;;;;;;;;;;4946687;29;20682;-75
2022/07/29 12:03:14;;;;;;;7.17;4.27;;;;;;;;;;4959499;28;20027;-75
2022/07/29 12:05:42;;;;;;;6.45;5.30;;;;;;;;;;4952113;28;20754;-77
2022/07/29 12:08:21;;;;;;;11.55;5.18;;;;;;;;;;4938527;29;20074;-76
2022/07/29 12:10:51;;;;;;;7.68;4.20;;;;;;;;;;4937432;29;20579;-76
2022/07/29 12:13:19;;;;;;;10.48;4.53;;;;;;;;;;4944720;29;20062;-75
2022/07/29 12:15:58;;;;;;;8.23;4.65;;;;;;;;;;4950204;29;20023;-75
2022/07/29 12:18:24;;;;;;;13.43;5.10;;;;;;;;;;4934330;29;20031;-77
2022/07/29 12:20:57;;;;;;;11.27;5.07;;;;;;;;;;4948666;28;20035;-77
2022/07/29 12:23:22;;;;;;;7.72;4.80;;;;;;;;;;4949747;29;20051;-75
2022/07/29 12:25:48;;;;;;;7.10;4.90;;;;;;;;;;4950141;29;20109;-74
2022/07/29 12:28:18;;;;;;;9.65;5.93;;;;;;;;;;4963264;28;20027;-75
2022/07/29 12:31:14;;;;;;;7.90;5.70;;;;;;;;;;4941870;29;20023;-77
2022/07/29 12:33:42;;;;;;;7.28;5.22;;;;;;;;;;4941897;29;20286;-76
2022/07/29 12:36:08;;;;;;;5.68;5.10;;;;;;;;;;4944870;29;20043;-75
2022/07/29 12:38:35;;;;;;;8.98;4.60;;;;;;;;;;4941279;28;20062;-75
2022/07/29 12:41:03;;;;;;;12.00;5.10;;;;;;;;;;4936491;28;20115;-75
2022/07/29 12:43:28;;;;;;;14.13;5.72;;;;;;;;;;4939347;29;20417;-75
2022/07/29 12:45:57;;;;;;;18.13;7.10;;;;;;;;;;4939242;29;20130;-75
2022/07/29 12:48:39;;;;;;;9.23;4.68;;;;;;;;;;4960805;28;20049;-77
2022/07/29 12:51:07;;;;;;;7.22;4.63;;;;;;;;;;4936583;28;20034;-76
2022/07/29 12:53:33;;;;;;;12.35;5.40;;;;;;;;;;4942094;29;20031;-75
2022/07/29 12:56:01;;;;;;;11.32;5.22;;;;;;;;;;4942424;29;20507;-75
2022/07/29 12:58:37;;;;;;;13.50;5.40;;;;;;;;;;4930464;29;20058;-75
2022/07/29 13:01:03;;;;;;;16.45;7.43;;;;;;;;;;4947077;29;20082;-74
2022/07/29 13:03:45;;;;;;;15.02;5.70;;;;;;;;;;4947492;28;20560;-76
2022/07/29 13:06:30;;;;;;;9.45;5.63;;;;;;;;;;4945404;29;20031;-75
2022/07/29 13:09:11;;;;;;;17.98;7.07;;;;;;;;;;4945515;29;20050;-74
2022/07/29 13:11:49;;;;;;;15.82;7.28;;;;;;;;;;4953435;28;20340;-76
2022/07/29 13:14:39;;;;;;;12.77;5.70;;;;;;;;;;4962577;28;20031;-76
2022/07/29 13:17:08;;;;;;;18.98;11.82;;;;;;;;;;4951750;28;20482;-76
2022/07/29 13:19:42;;;;;;;35.28;9.15;;;;;;;;;;4941475;29;20042;-76
2022/07/29 13:22:09;;;;;;;16.70;7.00;;;;;;;;;;4930760;29;20035;-75
2022/07/29 13:24:46;;;;;;;16.92;6.25;;;;;;;;;;4930119;29;20050;-76
2022/07/29 13:27:14;;;;;;;12.02;5.30;;;;;;;;;;4945333;28;20031;-76
2022/07/29 13:29:41;;;;;;;19.63;7.22;;;;;;;;;;4938982;29;20031;-75
2022/07/29 13:32:08;;;;;;;36.47;7.78;;;;;;;;;;4950249;29;20023;-76
2022/07/29 13:34:34;;;;;;;30.55;7.45;;;;;;;;;;4944262;29;20111;-76
2022/07/29 13:36:59;;;;;;;25.23;6.47;;;;;;;;;;4943007;29;20031;-75
2022/07/29 13:39:25;;;;;;;9.93;6.03;;;;;;;;;;4942725;29;20031;-76
2022/07/29 13:41:51;;;;;;;22.52;7.10;;;;;;;;;;4940452;29;20085;-76
2022/07/29 13:44:16;;;;;;;17.10;6.70;;;;;;;;;;4935725;29;20027;-74
2022/07/29 13:46:42;;;;;;;16.60;5.45;;;;;;;;;;4947581;28;20521;-76
2022/07/29 13:49:07;;;;;;;9.25;5.70;;;;;;;;;;4945361;29;20110;-76
2022/07/29 13:51:33;;;;;;;22.77;7.13;;;;;;;;;;4940018;29;20030;-75
2022/07/29 13:53:59;;;;;;;13.52;5.90;;;;;;;;;;4939693;28;20082;-74
2022/07/29 13:56:24;;;;;;;10.35;5.38;;;;;;;;;;4959498;28;20043;-76
2022/07/29 13:58:50;;;;;;;20.85;8.25;;;;;;;;;;4949704;29;20089;-76
2022/07/29 14:01:15;;;;;;;19.50;8.07;;;;;;;;;;4955957;28;20400;-76
2022/07/29 14:03:42;;;;;;;63.30;21.92;;;;;;;;;;4945352;28;20028;-76
2022/07/29 14:06:08;;;;;;;12.25;5.55;;;;;;;;;;4947158;28;20066;-77
2022/07/29 14:08:34;;;;;;;13.27;7.72;;;;;;;;;;4936058;29;20051;-76
2022/07/29 14:11:00;;;;;;;18.70;9.30;;;;;;;;;;4937797;29;20047;-75
2022/07/29 14:13:26;;;;;;;9.63;6.18;;;;;;;;;;4946366;29;20126;-76
2022/07/29 14:15:52;;;;;;;8.50;6.28;;;;;;;;;;4942820;29;20472;-76
2022/07/29 14:18:20;;;;;;;12.75;4.95;;;;;;;;;;4934568;29;20030;-76
2022/07/29 14:20:46;;;;;;;9.32;4.63;;;;;;;;;;4951345;29;20027;-76
2022/07/29 14:23:12;;;;;;;11.88;4.72;;;;;;;;;;4960111;28;20046;-79
2022/07/29 14:25:37;;;;;;;9.80;5.05;;;;;;;;;;4943172;29;20115;-78
2022/07/29 14:28:06;;;;;;;6.43;4.82;;;;;;;;;;4952814;29;20030;-77
2022/07/29 14:30:49;;;;;;;5.47;3.85;;;;;;;;;;4943912;29;20024;-77
2022/07/29 14:33:15;;;;;;;11.02;4.93;;;;;;;;;;4939189;29;20547;-77
2022/07/29 14:35:40;;;;;;;10.32;5.25;;;;;;;;;;4950055;29;20488;-76
2022/07/29 14:38:06;;;;;;;11.75;5.97;;;;;;;;;;4954847;29;20086;-77
2022/07/29 14:40:32;;;;;;;10.20;6.55;;;;;;;;;;4954961;29;20035;-77
2022/07/29 14:42:57;;;;;;;9.48;4.97;;;;;;;;;;4952712;29;20031;-77
2022/07/29 14:45:23;;;;;;;10.93;4.53;;;;;;;;;;4952409;28;20047;-77
2022/07/29 14:47:50;;;;;;;11.68;4.38;;;;;;;;;;4961661;28;20027;-76
2022/07/29 14:50:16;;;;;;;10.77;4.93;;;;;;;;;;4941114;29;20051;-76
2022/07/29 14:52:42;;;;;;;10.05;5.80;;;;;;;;;;4953056;29;20487;-78
2022/07/29 14:55:08;;;;;;;5.70;4.55;;;;;;;;;;4936312;29;20034;-76
2022/07/29 14:57:33;;;;;;;10.27;4.63;;;;;;;;;;4937017;29;20032;-76
2022/07/29 14:59:59;;;;;;;12.35;5.50;;;;;;;;;;4950674;29;20031;-76
2022/07/29 15:02:25;;;;;;;9.38;4.32;;;;;;;;;;4944205;29;20032;-77
2022/07/29 15:04:51;;;;;;;7.50;4.30;;;;;;;;;;4960127;28;20095;-76